Time;durP1;ratioP1;P1;durP2;ratioP2;P2;SDS_P1;SDS_P2;PMS_P1;PMS_P2;Temp;Humidity;BMP_temperature;BMP_pressure;BME280_temperature;BME280_humidity;BME280_pressure;Samples;Min_cycle;Max_cycle;Signal;HPM_P1;HPM_P2
2023/02/11 00:01:06;;;;;;;6.00;5.43;;;22.00;37.80;;;;;;5144837;27;20078;-62
2023/02/11 00:03:34;;;;;;;7.47;4.85;;;22.00;37.90;;;;;;5145067;27;20413;-54
2023/02/11 00:06:03;;;;;;;3.97;3.70;;;22.00;38.30;;;;;;5126587;27;20039;-48
2023/02/11 00:08:31;;;;;;;5.50;4.70;;;22.00;38.30;;;;;;5146627;27;20506;-51
2023/02/11 00:10:58;;;;;;;6.10;4.43;;;22.00;38.40;;;;;;5134981;27;20500;-51
2023/02/11 00:13:26;;;;;;;6.78;4.55;;;21.90;38.50;;;;;;5107009;28;20052;-50
2023/02/11 00:15:55;;;;;;;8.95;4.72;;;21.90;38.50;;;;;;5125536;27;20419;-51
2023/02/11 00:18:22;;;;;;;8.68;4.22;;;21.90;38.50;;;;;;5145549;27;20068;-47
2023/02/11 00:20:49;;;;;;;7.55;4.60;;;21.90;38.50;;;;;;5145349;27;20119;-51
2023/02/11 00:23:16;;;;;;;7.45;4.43;;;21.80;38.40;;;;;;5145302;27;20053;-53
2023/02/11 00:25:45;;;;;;;11.32;5.25;;;21.80;39.10;;;;;;5144918;27;20484;-51
2023/02/11 00:28:13;;;;;;;10.45;4.95;;;21.80;38.50;;;;;;5144980;27;20035;-51
2023/02/11 00:30:41;;;;;;;5.60;4.18;;;21.80;38.50;;;;;;5107385;28;20035;-46
2023/02/11 00:33:09;;;;;;;6.20;4.18;;;21.70;38.50;;;;;;5124060;28;20130;-50
2023/02/11 00:35:37;;;;;;;8.93;5.22;;;21.70;38.50;;;;;;5106154;28;20739;-48
2023/02/11 00:38:04;;;;;;;4.97;4.00;;;21.60;38.50;;;;;;5106296;28;20096;-50
2023/02/11 00:40:31;;;;;;;4.72;3.95;;;21.60;38.50;;;;;;5125555;28;20082;-46
2023/02/11 00:42:58;;;;;;;6.30;4.45;;;21.60;38.70;;;;;;5140556;27;20082;-46
2023/02/11 00:45:26;;;;;;;6.32;4.80;;;21.50;38.70;;;;;;5146968;27;20043;-50
2023/02/11 00:47:53;;;;;;;5.40;3.97;;;21.50;38.60;;;;;;5146640;27;20045;-50
2023/02/11 00:50:23;;;;;;;7.00;3.97;;;21.40;38.60;;;;;;5127687;27;20149;-47
2023/02/11 00:52:50;;;;;;;4.28;3.88;;;21.40;38.60;;;;;;5146086;27;20054;-50
2023/02/11 00:55:18;;;;;;;4.90;4.43;;;21.30;38.60;;;;;;5127579;27;20139;-50
2023/02/11 00:57:45;;;;;;;8.15;5.07;;;21.30;38.60;;;;;;5127511;27;20067;-51
2023/02/11 01:00:14;;;;;;;5.18;4.68;;;21.30;38.70;;;;;;5130625;27;20043;-51
2023/02/11 01:02:41;;;;;;;5.15;4.65;;;21.20;38.70;;;;;;5140915;27;20950;-51
2023/02/11 01:05:10;;;;;;;5.18;4.13;;;21.20;38.80;;;;;;5149940;27;20046;-50
2023/02/11 01:07:38;;;;;;;8.55;4.88;;;21.10;38.60;;;;;;5131281;27;20173;-55
2023/02/11 01:10:06;;;;;;;9.75;6.28;;;21.10;38.60;;;;;;5131621;27;20053;-53
2023/02/11 01:12:33;;;;;;;5.88;5.18;;;21.00;38.50;;;;;;5131260;27;20098;-50
2023/02/11 01:15:00;;;;;;;5.05;3.88;;;21.00;38.60;;;;;;5149914;27;20057;-50
2023/02/11 01:17:28;;;;;;;3.92;3.45;;;21.00;38.60;;;;;;5149778;27;20484;-53
2023/02/11 01:19:55;;;;;;;8.23;4.25;;;20.90;38.70;;;;;;5149901;27;20091;-52
2023/02/11 01:22:23;;;;;;;7.28;4.72;;;20.90;38.90;;;;;;5130819;27;20038;-49
2023/02/11 01:24:51;;;;;;;7.85;3.92;;;20.90;39.10;;;;;;5133963;27;20050;-52
2023/02/11 01:27:18;;;;;;;5.47;4.32;;;20.80;39.00;;;;;;5110929;27;20042;-53
2023/02/11 01:29:45;;;;;;;6.88;3.97;;;20.80;39.10;;;;;;5093370;27;20089;-51
2023/02/11 01:32:14;;;;;;;5.18;3.83;;;20.80;39.20;;;;;;5129076;27;20127;-49
2023/02/11 01:34:42;;;;;;;6.90;4.00;;;20.80;39.20;;;;;;5110422;27;20051;-52
2023/02/11 01:37:09;;;;;;;6.57;3.80;;;20.70;39.90;;;;;;5109732;27;20691;-53
2023/02/11 01:39:36;;;;;;;8.50;4.43;;;20.70;39.30;;;;;;5142325;27;20042;-52
2023/02/11 01:42:07;;;;;;;7.05;4.25;;;20.70;39.40;;;;;;5131031;27;20050;-49
2023/02/11 01:44:37;;;;;;;11.55;5.22;;;20.60;39.40;;;;;;5149479;27;20095;-50
2023/02/11 01:47:05;;;;;;;6.53;3.78;;;20.60;39.60;;;;;;5130846;27;20049;-54
2023/02/11 01:49:35;;;;;;;4.55;3.28;;;20.60;39.50;;;;;;5149466;27;20074;-53
2023/02/11 01:52:07;;;;;;;6.45;4.43;;;20.50;39.50;;;;;;5149104;27;20039;-53
2023/02/11 01:57:31;;;;;;;9.57;4.72;;;20.50;39.80;;;;;;5128738;27;20036;-52
2023/02/11 02:00:05;;;;;;;7.82;5.03;;;20.50;39.80;;;;;;5110279;27;20046;-51
2023/02/11 02:02:48;;;;;;;5.82;4.53;;;20.40;39.90;;;;;;5128446;27;20042;-51
2023/02/11 02:05:24;;;;;;;4.63;4.18;;;20.40;40.00;;;;;;5109527;27;20043;-50
2023/02/11 02:07:58;;;;;;;4.95;4.10;;;20.40;40.10;;;;;;5143654;27;20038;-51
2023/02/11 02:10:27;;;;;;;9.75;4.40;;;20.30;39.90;;;;;;5148887;27;20498;-48
2023/02/11 02:12:56;;;;;;;9.18;4.85;;;20.30;40.10;;;;;;5148647;27;20046;-53
2023/02/11 02:15:27;;;;;;;5.70;3.53;;;20.30;40.10;;;;;;5148572;27;20074;-49
2023/02/11 02:18:03;;;;;;;4.38;4.00;;;20.30;40.20;;;;;;5148726;27;20439;-50
2023/02/11 02:21:10;;;;;;;8.48;4.70;;;20.30;40.20;;;;;;5148383;27;20038;-53
2023/02/11 02:24:13;;;;;;;5.53;5.05;;;20.30;40.20;;;;;;5142590;27;20051;-50
2023/02/11 02:27:08;;;;;;;4.68;4.25;;;20.20;40.30;;;;;;5114191;27;20043;-51
2023/02/11 02:30:16;;;;;;;7.13;4.70;;;20.20;41.00;;;;;;5127554;27;20069;-51
2023/02/11 02:32:58;;;;;;;5.72;3.55;;;20.10;40.40;;;;;;5129047;27;20480;-51
2023/02/11 02:35:34;;;;;;;4.70;3.60;;;20.20;40.30;;;;;;5148112;27;20042;-50
2023/02/11 02:38:08;;;;;;;4.85;4.10;;;20.10;40.30;;;;;;5148407;27;20042;-50
2023/02/11 02:40:41;;;;;;;8.15;3.15;;;20.10;40.50;;;;;;5148563;27;20042;-51
2023/02/11 02:43:10;;;;;;;6.28;4.22;;;20.10;40.60;;;;;;5148514;27;20062;-52
2023/02/11 02:45:37;;;;;;;6.60;4.13;;;20.00;40.50;;;;;;5148292;27;20468;-54
2023/02/11 02:48:06;;;;;;;3.97;3.63;;;20.10;40.60;;;;;;5148493;27;20111;-50
2023/02/11 02:50:36;;;;;;;12.02;4.55;;;20.00;40.60;;;;;;5148187;27;20130;-52
2023/02/11 02:53:23;;;;;;;5.35;4.82;;;20.00;40.50;;;;;;5128936;27;20762;-54
2023/02/11 02:56:00;;;;;;;7.20;4.57;;;20.00;40.50;;;;;;5132418;27;20051;-55
2023/02/11 02:58:54;;;;;;;3.40;3.20;;;20.00;40.60;;;;;;5127610;27;20147;-54
2023/02/11 03:01:35;;;;;;;4.28;3.88;;;20.00;40.70;;;;;;5127759;27;20047;-49
2023/02/11 03:04:10;;;;;;;10.75;4.65;;;19.90;40.80;;;;;;5127096;27;20453;-52
2023/02/11 03:06:48;;;;;;;23.50;4.55;;;19.90;40.80;;;;;;5127442;27;20043;-47
2023/02/11 03:09:21;;;;;;;7.65;4.35;;;19.90;40.90;;;;;;5127282;27;20130;-50
2023/02/11 03:11:49;;;;;;;3.97;3.47;;;19.90;40.90;;;;;;5126922;27;20045;-51
2023/02/11 03:14:18;;;;;;;9.10;3.30;;;19.90;40.90;;;;;;5108648;27;20114;-50
2023/02/11 03:16:49;;;;;;;4.75;4.15;;;19.90;40.90;;;;;;5127199;27;20051;-49
2023/02/11 03:19:21;;;;;;;6.15;3.85;;;19.90;40.90;;;;;;5126909;27;20474;-48
2023/02/11 03:21:50;;;;;;;3.08;2.88;;;19.90;40.80;;;;;;5126256;27;20042;-53
2023/02/11 03:24:23;;;;;;;3.38;3.05;;;19.90;40.90;;;;;;5126729;27;20843;-50
2023/02/11 03:26:53;;;;;;;5.82;3.72;;;19.90;40.90;;;;;;5126792;27;20572;-48
2023/02/11 03:29:31;;;;;;;5.32;4.25;;;19.80;41.00;;;;;;5126668;27;20071;-52
2023/02/11 03:32:04;;;;;;;4.25;3.80;;;19.80;40.90;;;;;;5138987;27;20076;-51
2023/02/11 03:34:40;;;;;;;5.30;3.17;;;19.80;41.00;;;;;;5146922;27;20123;-54
2023/02/11 03:37:12;;;;;;;6.63;4.40;;;19.80;41.10;;;;;;5146943;27;20035;-51
2023/02/11 03:39:44;;;;;;;8.50;4.13;;;19.80;41.10;;;;;;5147205;27;20050;-49
2023/02/11 03:42:14;;;;;;;5.68;3.80;;;19.80;41.00;;;;;;5128218;27;20042;-47
2023/02/11 03:44:46;;;;;;;7.30;4.35;;;19.80;41.10;;;;;;5147439;27;20039;-53
2023/02/11 03:47:15;;;;;;;3.95;3.63;;;19.70;41.10;;;;;;5147086;27;20050;-51
2023/02/11 03:49:47;;;;;;;6.32;3.60;;;19.70;41.20;;;;;;5147019;27;20043;-52
2023/02/11 03:52:17;;;;;;;6.28;4.10;;;19.70;41.20;;;;;;5146880;27;20047;-52
2023/02/11 03:54:51;;;;;;;7.05;3.65;;;19.70;41.10;;;;;;5146645;27;20046;-49
2023/02/11 03:57:18;;;;;;;5.75;4.05;;;19.70;41.20;;;;;;5146915;27;20035;-48
2023/02/11 03:59:53;;;;;;;8.60;4.07;;;19.70;41.20;;;;;;5147066;27;20043;-50
2023/02/11 04:02:22;;;;;;;5.30;4.30;;;19.70;41.30;;;;;;5146257;27;20046;-49
2023/02/11 04:04:50;;;;;;;5.32;3.85;;;19.60;41.20;;;;;;5146947;27;20045;-51
2023/02/11 04:07:17;;;;;;;5.50;4.15;;;19.60;41.20;;;;;;5147062;27;20042;-50
2023/02/11 04:09:44;;;;;;;8.57;5.00;;;19.60;41.20;;;;;;5146011;27;20035;-51
2023/02/11 04:12:11;;;;;;;6.60;4.43;;;19.60;41.10;;;;;;5146349;27;20082;-52
2023/02/11 04:14:39;;;;;;;5.28;4.80;;;19.60;41.30;;;;;;5146872;27;20486;-51
2023/02/11 04:17:06;;;;;;;6.72;4.72;;;19.60;41.20;;;;;;5146430;27;20043;-51
2023/02/11 04:19:33;;;;;;;7.70;5.18;;;19.60;41.30;;;;;;5146789;27;20045;-49
2023/02/11 04:22:01;;;;;;;7.68;6.60;;;19.60;41.20;;;;;;5146875;27;20129;-54
2023/02/11 04:24:29;;;;;;;8.63;5.90;;;19.60;41.30;;;;;;5115069;28;20122;-52
2023/02/11 04:26:56;;;;;;;9.65;5.05;;;19.60;41.30;;;;;;5126263;27;20047;-49
2023/02/11 04:29:24;;;;;;;8.38;5.30;;;19.60;41.30;;;;;;5126369;27;20035;-53
2023/02/11 04:31:52;;;;;;;15.00;7.68;;;19.60;41.40;;;;;;5125604;28;20059;-49
2023/02/11 04:34:18;;;;;;;12.00;6.57;;;19.60;41.50;;;;;;5127142;27;20054;-49
2023/02/11 04:36:46;;;;;;;10.40;5.78;;;19.60;41.50;;;;;;5130391;27;20201;-52
2023/02/11 04:39:14;;;;;;;8.43;7.15;;;19.60;41.60;;;;;;5130187;27;20046;-51
2023/02/11 04:41:41;;;;;;;13.77;6.07;;;19.60;41.60;;;;;;5133478;27;20050;-52
2023/02/11 04:44:09;;;;;;;10.30;6.72;;;19.60;41.60;;;;;;5150705;27;20046;-52
2023/02/11 04:46:36;;;;;;;7.55;6.25;;;19.50;41.60;;;;;;5150311;27;20054;-51
2023/02/11 04:49:04;;;;;;;9.52;5.60;;;19.50;41.60;;;;;;5138209;27;20134;-50
2023/02/11 04:51:32;;;;;;;10.20;6.25;;;19.60;41.80;;;;;;5129912;27;20402;-49
2023/02/11 04:53:59;;;;;;;8.55;5.93;;;19.50;41.80;;;;;;5129660;27;20039;-49
2023/02/11 04:56:27;;;;;;;6.57;5.70;;;19.50;41.80;;;;;;5129635;27;20166;-50
2023/02/11 04:58:56;;;;;;;12.95;6.97;;;19.50;41.90;;;;;;5129659;27;20511;-54
2023/02/11 05:01:23;;;;;;;6.40;5.80;;;19.50;41.90;;;;;;5129630;27;20051;-51
2023/02/11 05:03:50;;;;;;;7.88;5.50;;;19.50;41.90;;;;;;5129381;27;20122;-49
2023/02/11 05:06:17;;;;;;;7.32;4.88;;;19.50;42.00;;;;;;5129618;27;20155;-50
2023/02/11 05:08:44;;;;;;;8.70;6.05;;;19.50;41.90;;;;;;5111379;27;20045;-55
2023/02/11 05:11:16;;;;;;;7.03;4.78;;;19.50;41.90;;;;;;5129711;27;20050;-53
2023/02/11 05:13:46;;;;;;;5.88;5.30;;;19.50;42.00;;;;;;5110431;27;20515;-49
2023/02/11 05:16:14;;;;;;;7.80;5.90;;;19.50;42.00;;;;;;5129335;27;20431;-54
2023/02/11 05:18:43;;;;;;;6.10;4.38;;;19.50;41.90;;;;;;5129402;27;20073;-53
2023/02/11 05:21:12;;;;;;;6.72;4.35;;;19.50;42.00;;;;;;5129414;27;20649;-52
2023/02/11 05:23:39;;;;;;;5.47;4.97;;;19.50;42.00;;;;;;5129148;27;20039;-52
2023/02/11 05:26:07;;;;;;;6.50;4.93;;;19.50;41.90;;;;;;5129466;27;20120;-49
2023/02/11 05:28:35;;;;;;;5.70;3.67;;;19.50;42.10;;;;;;5128994;27;20043;-57
2023/02/11 05:31:04;;;;;;;5.63;4.78;;;19.50;42.10;;;;;;5129077;27;20495;-49
2023/02/11 05:33:31;;;;;;;4.47;4.13;;;19.50;42.10;;;;;;5112872;27;20074;-52
2023/02/11 05:35:59;;;;;;;6.07;5.55;;;19.50;42.10;;;;;;5149664;27;20100;-54
2023/02/11 05:38:27;;;;;;;5.15;4.65;;;19.50;42.10;;;;;;5149592;27;20038;-51
2023/02/11 05:40:54;;;;;;;6.40;4.10;;;19.50;42.10;;;;;;5149574;27;20043;-50
2023/02/11 05:43:21;;;;;;;6.82;4.88;;;19.50;42.10;;;;;;5149077;27;20131;-51
2023/02/11 05:45:48;;;;;;;5.05;4.55;;;19.50;42.10;;;;;;5148701;27;20693;-51
2023/02/11 05:48:17;;;;;;;6.32;4.20;;;19.50;42.10;;;;;;5149138;27;20043;-50
2023/02/11 05:50:45;;;;;;;7.93;4.40;;;19.50;42.10;;;;;;5149306;27;20066;-50
2023/02/11 05:53:12;;;;;;;8.40;3.47;;;19.40;41.90;;;;;;5149179;27;20050;-51
2023/02/11 05:55:39;;;;;;;7.53;3.92;;;19.50;42.20;;;;;;5148908;27;20039;-49
2023/02/11 05:58:07;;;;;;;4.82;4.22;;;19.50;42.10;;;;;;5148618;27;20042;-50
2023/02/11 06:00:35;;;;;;;4.95;3.88;;;19.50;42.20;;;;;;5149294;27;20051;-49
2023/02/11 06:03:03;;;;;;;7.63;3.97;;;19.40;42.10;;;;;;5148943;27;20081;-52
2023/02/11 06:05:32;;;;;;;6.38;4.18;;;19.50;42.30;;;;;;5148971;27;20046;-50
2023/02/11 06:07:59;;;;;;;5.82;3.10;;;19.40;42.20;;;;;;5148984;27;20049;-50
2023/02/11 06:10:27;;;;;;;4.20;3.75;;;19.50;42.30;;;;;;5148968;27;20031;-49
2023/02/11 06:12:54;;;;;;;4.03;3.63;;;19.40;42.10;;;;;;5148135;27;20141;-48
2023/02/11 06:15:21;;;;;;;5.50;3.83;;;19.50;42.20;;;;;;5148646;27;20079;-49
2023/02/11 06:17:48;;;;;;;5.15;3.50;;;19.50;42.20;;;;;;5129408;27;20558;-50
2023/02/11 06:20:15;;;;;;;4.18;3.55;;;19.50;42.20;;;;;;5148719;27;20068;-52
2023/02/11 06:22:44;;;;;;;4.22;3.83;;;19.50;42.20;;;;;;5148766;27;20138;-49
2023/02/11 06:25:12;;;;;;;7.28;3.78;;;19.50;42.10;;;;;;5129292;27;20043;-49
2023/02/11 06:27:39;;;;;;;3.95;3.65;;;19.40;42.00;;;;;;5127178;27;20563;-48
2023/02/11 06:30:08;;;;;;;6.38;3.97;;;19.50;42.10;;;;;;5127774;27;20075;-51
2023/02/11 06:32:35;;;;;;;3.60;3.38;;;19.50;42.10;;;;;;5127507;27;20122;-50
2023/02/11 06:35:03;;;;;;;4.68;4.13;;;19.40;42.00;;;;;;5127417;27;20043;-49
2023/02/11 06:37:30;;;;;;;6.47;3.63;;;19.50;42.00;;;;;;5127200;27;20035;-48
2023/02/11 06:39:59;;;;;;;5.18;2.85;;;19.50;42.10;;;;;;5127704;27;20130;-49
2023/02/11 06:42:26;;;;;;;6.07;3.42;;;19.40;41.90;;;;;;5137105;27;20069;-52
2023/02/11 06:44:53;;;;;;;6.57;3.40;;;19.40;42.00;;;;;;5148134;27;20088;-47
2023/02/11 06:47:20;;;;;;;3.53;3.20;;;19.50;42.00;;;;;;5148047;27;20057;-52
2023/02/11 06:49:47;;;;;;;3.22;3.03;;;19.40;42.00;;;;;;5128769;27;20041;-54
2023/02/11 06:52:14;;;;;;;6.05;3.05;;;19.40;42.00;;;;;;5129351;27;20063;-53
2023/02/11 06:54:41;;;;;;;3.83;2.97;;;19.40;41.90;;;;;;5127276;27;20039;-52
2023/02/11 06:57:10;;;;;;;3.22;2.83;;;19.40;41.90;;;;;;5125707;27;20058;-51
2023/02/11 06:59:37;;;;;;;3.60;2.88;;;19.40;41.90;;;;;;5126862;27;20086;-50
2023/02/11 07:02:04;;;;;;;3.55;3.20;;;19.40;41.90;;;;;;5108395;27;20089;-52
2023/02/11 07:04:31;;;;;;;3.67;3.20;;;19.40;41.90;;;;;;5126709;27;20507;-53
2023/02/11 07:06:58;;;;;;;4.50;3.28;;;19.40;41.90;;;;;;5108461;27;20046;-50
2023/02/11 07:09:26;;;;;;;3.95;2.90;;;19.40;41.90;;;;;;5126818;27;20043;-52
2023/02/11 07:11:53;;;;;;;5.00;4.13;;;19.40;42.00;;;;;;5126062;27;20141;-51
2023/02/11 07:14:22;;;;;;;2.92;2.72;;;19.40;42.10;;;;;;5126591;27;20043;-51
2023/02/11 07:16:49;;;;;;;2.72;2.53;;;19.40;42.10;;;;;;5126584;27;20131;-52
2023/02/11 07:19:16;;;;;;;2.47;2.28;;;19.40;42.20;;;;;;5126520;27;20045;-51
2023/02/11 07:21:43;;;;;;;3.35;3.05;;;19.40;42.20;;;;;;5126771;27;20635;-50
2023/02/11 07:24:11;;;;;;;4.85;3.85;;;19.40;42.10;;;;;;5107253;27;20038;-51
2023/02/11 07:26:38;;;;;;;4.00;2.95;;;19.40;42.20;;;;;;5126135;27;20054;-54
2023/02/11 07:29:05;;;;;;;4.68;3.22;;;19.40;42.30;;;;;;5112914;27;20049;-48
2023/02/11 07:31:34;;;;;;;4.13;3.63;;;19.40;42.30;;;;;;5147068;27;20254;-48
2023/02/11 07:34:02;;;;;;;3.13;2.67;;;19.40;42.30;;;;;;5146947;27;20043;-51
2023/02/11 07:36:30;;;;;;;3.65;2.60;;;19.40;42.30;;;;;;5134400;27;20082;-52
2023/02/11 07:38:57;;;;;;;5.50;3.05;;;19.40;42.40;;;;;;5107510;27;20035;-52
2023/02/11 07:41:25;;;;;;;4.65;3.03;;;19.40;42.40;;;;;;5142456;27;20128;-48
2023/02/11 07:43:53;;;;;;;5.20;3.80;;;19.40;42.50;;;;;;5146670;27;20050;-51
2023/02/11 07:46:22;;;;;;;4.32;3.17;;;19.40;42.50;;;;;;5146842;27;20038;-50
2023/02/11 07:48:51;;;;;;;3.28;2.63;;;19.40;42.50;;;;;;5146672;27;20043;-50
2023/02/11 07:51:21;;;;;;;3.10;2.58;;;19.40;42.70;;;;;;5146963;27;20115;-53
2023/02/11 07:53:48;;;;;;;3.80;3.03;;;19.40;42.80;;;;;;5146436;27;20054;-53
2023/02/11 07:56:18;;;;;;;2.35;2.15;;;19.40;42.90;;;;;;5146745;27;20043;-48
2023/02/11 07:58:45;;;;;;;5.65;2.83;;;19.40;42.90;;;;;;5146987;27;20074;-51
2023/02/11 08:01:14;;;;;;;7.28;3.40;;;19.40;42.90;;;;;;5146688;27;20506;-48
2023/02/11 08:03:42;;;;;;;3.60;2.72;;;19.40;42.90;;;;;;5146660;27;20078;-49
2023/02/11 08:06:12;;;;;;;10.57;2.95;;;19.40;42.90;;;;;;5144747;27;20085;-58
2023/02/11 08:08:40;;;;;;;7.35;3.50;;;19.40;43.00;;;;;;5144337;27;20509;-56
2023/02/11 08:11:08;;;;;;;5.97;3.63;;;19.40;43.20;;;;;;5143975;27;20070;-59
2023/02/11 08:13:35;;;;;;;5.68;4.50;;;19.40;43.20;;;;;;5125578;27;20063;-53
2023/02/11 08:16:04;;;;;;;6.30;4.70;;;19.50;42.80;;;;;;5144453;27;20137;-53
2023/02/11 08:18:33;;;;;;;6.68;4.03;;;19.50;42.50;;;;;;5145286;27;20430;-54
2023/02/11 08:21:04;;;;;;;8.15;4.43;;;19.50;42.10;;;;;;5144191;27;20574;-58
2023/02/11 08:23:33;;;;;;;4.93;4.13;;;19.60;42.10;;;;;;5139034;27;20050;-58
2023/02/11 08:26:01;;;;;;;5.85;3.17;;;19.60;42.00;;;;;;5123776;28;20049;-56
2023/02/11 08:28:29;;;;;;;4.40;3.65;;;19.70;42.20;;;;;;5123957;27;20070;-60
2023/02/11 08:30:56;;;;;;;8.55;4.68;;;19.70;42.00;;;;;;5123458;28;20059;-56
2023/02/11 08:33:23;;;;;;;5.38;4.75;;;19.80;41.60;;;;;;5123826;28;20535;-57
2023/02/11 08:35:50;;;;;;;5.50;5.00;;;19.80;41.50;;;;;;5124064;28;20043;-62
2023/02/11 08:38:17;;;;;;;5.32;4.85;;;19.90;41.20;;;;;;5123770;28;20047;-56
2023/02/11 08:40:47;;;;;;;7.32;5.28;;;19.90;41.00;;;;;;5123693;28;20059;-55
2023/02/11 08:43:15;;;;;;;5.60;4.32;;;20.00;40.90;;;;;;5140359;27;20110;-62
2023/02/11 08:45:42;;;;;;;6.60;5.38;;;20.00;41.00;;;;;;5128868;27;20039;-51
2023/02/11 08:48:09;;;;;;;7.72;5.00;;;20.00;40.80;;;;;;5122621;28;20051;-54
2023/02/11 08:50:39;;;;;;;5.30;4.78;;;20.10;40.70;;;;;;5122722;27;20384;-54
2023/02/11 08:53:06;;;;;;;4.72;3.28;;;20.10;40.60;;;;;;5122376;27;20047;-55
2023/02/11 08:55:33;;;;;;;8.05;4.82;;;20.20;41.10;;;;;;5122527;27;20043;-52
2023/02/11 08:58:02;;;;;;;4.50;4.10;;;20.20;40.70;;;;;;5122360;27;20160;-54
2023/02/11 09:00:29;;;;;;;4.32;4.03;;;20.20;40.90;;;;;;5122547;28;20042;-58
2023/02/11 09:02:57;;;;;;;5.45;4.20;;;20.20;40.70;;;;;;5125402;27;20119;-55
2023/02/11 09:05:26;;;;;;;9.68;5.82;;;20.30;40.60;;;;;;5144670;27;20075;-54
2023/02/11 09:07:53;;;;;;;6.78;5.57;;;20.30;40.40;;;;;;5144367;27;20042;-57
2023/02/11 09:10:20;;;;;;;6.65;5.68;;;20.40;40.30;;;;;;5125961;27;20122;-56
2023/02/11 09:12:47;;;;;;;8.15;6.57;;;20.40;40.20;;;;;;5144527;27;20062;-60
2023/02/11 09:15:15;;;;;;;5.50;4.55;;;20.40;40.10;;;;;;5144696;27;20049;-62
2023/02/11 09:17:42;;;;;;;6.97;6.28;;;20.50;40.30;;;;;;5144190;27;20046;-60
2023/02/11 09:20:10;;;;;;;8.48;5.13;;;20.50;40.10;;;;;;5145018;27;20145;-59
2023/02/11 09:22:38;;;;;;;3.22;2.92;;;20.60;40.00;;;;;;5148157;27;20158;-59
2023/02/11 09:25:05;;;;;;;5.90;4.75;;;20.60;40.60;;;;;;5148220;27;20054;-62
2023/02/11 09:27:32;;;;;;;10.23;5.82;;;20.70;40.30;;;;;;5148388;27;20039;-60
2023/02/11 09:29:59;;;;;;;5.53;5.03;;;20.70;40.10;;;;;;5134853;27;20133;-63
2023/02/11 09:32:27;;;;;;;6.55;5.50;;;20.80;40.00;;;;;;5126830;27;20043;-61
2023/02/11 09:34:55;;;;;;;7.63;5.57;;;20.80;39.80;;;;;;5127060;27;20426;-56
2023/02/11 09:37:22;;;;;;;6.55;4.80;;;20.80;39.70;;;;;;5127090;27;20491;-62
2023/02/11 09:39:49;;;;;;;9.05;4.90;;;20.80;39.70;;;;;;5127337;27;20046;-61
2023/02/11 09:42:43;;;;;;;7.40;5.20;;;20.90;39.70;;;;;;5135345;27;20497;-61
2023/02/11 09:45:18;;;;;;;6.70;5.20;;;20.90;39.50;;;;;;5148347;27;20121;-62
2023/02/11 09:47:55;;;;;;;6.13;5.53;;;21.00;39.50;;;;;;5148498;27;20042;-61
2023/02/11 09:50:29;;;;;;;6.55;5.95;;;21.00;39.30;;;;;;5147002;27;20088;-63
2023/02/11 09:53:00;;;;;;;6.47;5.85;;;21.00;39.10;;;;;;5147191;27;20502;-64
2023/02/11 09:55:33;;;;;;;5.57;4.40;;;21.00;39.10;;;;;;5147851;27;20043;-62
2023/02/11 09:58:03;;;;;;;10.55;6.72;;;21.10;39.00;;;;;;5147505;27;20055;-59
2023/02/11 10:00:36;;;;;;;5.28;4.68;;;21.10;38.90;;;;;;5147242;27;20045;-65
2023/02/11 10:03:38;;;;;;;6.20;4.13;;;21.10;39.00;;;;;;5147186;27;20042;-64
2023/02/11 10:06:30;;;;;;;6.68;4.88;;;21.20;39.00;;;;;;5148055;27;20145;-63
2023/02/11 10:09:12;;;;;;;4.60;4.10;;;21.20;38.90;;;;;;5144690;27;20039;-62
2023/02/11 10:11:51;;;;;;;4.28;3.80;;;21.20;38.90;;;;;;5146953;27;20125;-62
2023/02/11 10:14:34;;;;;;;6.85;5.75;;;21.20;38.90;;;;;;5147501;27;20129;-60
2023/02/11 10:17:14;;;;;;;4.57;3.72;;;21.30;38.80;;;;;;5147506;27;20054;-61
2023/02/11 10:19:57;;;;;;;5.10;4.05;;;21.30;38.80;;;;;;5147235;27;20038;-57
2023/02/11 10:22:31;;;;;;;2.97;2.75;;;21.40;38.80;;;;;;5146815;27;20133;-58
2023/02/11 10:24:59;;;;;;;3.92;3.50;;;21.40;38.80;;;;;;5147500;27;20593;-59
2023/02/11 10:27:30;;;;;;;4.20;3.30;;;21.40;38.80;;;;;;5144058;27;20050;-57
2023/02/11 10:30:07;;;;;;;5.60;4.28;;;21.50;38.80;;;;;;5146728;27;20049;-57
2023/02/11 10:32:43;;;;;;;3.58;2.25;;;21.50;39.00;;;;;;5145991;27;20038;-55
2023/02/11 10:35:16;;;;;;;5.97;3.13;;;21.50;39.40;;;;;;5128001;27;20670;-57
2023/02/11 10:37:45;;;;;;;4.00;3.47;;;21.60;38.90;;;;;;5146181;27;20042;-55
2023/02/11 10:40:18;;;;;;;3.65;3.38;;;21.60;38.70;;;;;;5145970;27;20038;-53
2023/02/11 10:42:48;;;;;;;4.70;3.25;;;21.60;38.60;;;;;;5126450;27;20454;-54
2023/02/11 10:45:20;;;;;;;3.65;3.33;;;21.70;38.60;;;;;;5144322;27;20047;-56
2023/02/11 10:47:48;;;;;;;5.47;4.00;;;21.70;39.10;;;;;;5125091;27;20100;-58
2023/02/11 10:50:23;;;;;;;5.55;4.47;;;21.70;38.50;;;;;;5089804;27;20758;-62
2023/02/11 10:52:51;;;;;;;6.28;4.15;;;21.70;38.40;;;;;;5125000;27;20047;-61
2023/02/11 10:55:20;;;;;;;5.78;5.05;;;21.80;38.50;;;;;;5125355;27;20060;-62
2023/02/11 10:57:55;;;;;;;5.72;4.30;;;21.80;38.50;;;;;;5125118;27;20079;-64
2023/02/11 11:00:38;;;;;;;16.98;4.68;;;21.80;38.40;;;;;;5119897;27;20051;-64
2023/02/11 11:03:16;;;;;;;10.45;5.90;;;21.80;38.30;;;;;;5145187;27;20754;-60
2023/02/11 11:05:49;;;;;;;7.03;4.43;;;21.80;38.40;;;;;;5146001;27;20492;-60
2023/02/11 11:08:19;;;;;;;12.00;2.95;;;21.80;38.40;;;;;;5146306;27;20054;-61
2023/02/11 11:10:49;;;;;;;9.00;3.30;;;21.80;38.80;;;;;;5129156;27;20045;-62
2023/02/11 11:13:31;;;;;;;12.60;4.35;;;21.80;39.00;;;;;;5124564;27;20737;-63
2023/02/11 11:16:23;;;;;;;11.45;3.60;;;21.80;38.70;;;;;;5121232;27;20085;-62
2023/02/11 11:19:13;;;;;;;6.32;3.10;;;21.80;38.50;;;;;;5108415;27;20092;-62
2023/02/11 11:21:44;;;;;;;8.13;3.20;;;21.80;38.70;;;;;;5127949;27;20039;-63
2023/02/11 11:24:18;;;;;;;3.95;2.38;;;21.70;38.70;;;;;;5126841;27;20145;-62
2023/02/11 11:26:47;;;;;;;9.55;2.63;;;21.70;38.80;;;;;;5127633;27;20035;-62
2023/02/11 11:29:19;;;;;;;4.47;2.78;;;21.70;38.80;;;;;;5135278;27;20034;-65
2023/02/11 11:31:50;;;;;;;8.40;2.65;;;21.70;38.90;;;;;;5124916;27;20519;-63
2023/02/11 11:34:25;;;;;;;4.72;2.85;;;21.70;38.90;;;;;;5129475;27;20039;-62
2023/02/11 11:36:56;;;;;;;8.43;3.45;;;21.70;39.00;;;;;;5125691;27;20071;-64
2023/02/11 11:39:29;;;;;;;4.75;3.03;;;21.70;38.90;;;;;;5127200;27;20074;-61
2023/02/11 11:42:04;;;;;;;3.28;2.63;;;21.70;39.00;;;;;;5125218;27;20134;-69
2023/02/11 11:44:32;;;;;;;4.97;3.05;;;21.70;39.00;;;;;;5124723;27;20039;-69
2023/02/11 11:47:21;;;;;;;2.95;2.65;;;21.70;39.10;;;;;;5124192;27;20139;-66
2023/02/11 11:50:05;;;;;;;4.65;2.40;;;21.70;39.10;;;;;;5135429;27;20070;-66
2023/02/11 11:52:44;;;;;;;4.60;2.45;;;21.70;39.10;;;;;;5131767;27;20126;-65
2023/02/11 11:55:18;;;;;;;1.90;1.73;;;21.70;39.10;;;;;;5131251;27;20126;-62
2023/02/11 11:57:47;;;;;;;5.97;3.15;;;21.60;39.10;;;;;;5119771;27;20043;-69
2023/02/11 12:00:21;;;;;;;2.05;1.92;;;21.60;39.20;;;;;;5126837;27;20043;-66
2023/02/11 12:03:27;;;;;;;3.83;1.75;;;21.70;39.30;;;;;;5125440;27;20531;-65
2023/02/11 12:06:12;;;;;;;3.33;1.55;;;21.70;39.20;;;;;;5134442;27;20482;-67
2023/02/11 12:08:50;;;;;;;5.90;1.85;;;21.60;39.30;;;;;;5131815;27;20051;-65
2023/02/11 12:11:25;;;;;;;3.70;1.92;;;21.60;39.90;;;;;;5130018;27;20134;-67
2023/02/11 12:14:06;;;;;;;1.70;1.45;;;21.60;39.40;;;;;;5124293;27;20566;-63
2023/02/11 12:16:44;;;;;;;1.75;1.65;;;21.60;39.40;;;;;;5123037;27;20047;-69
2023/02/11 12:19:48;;;;;;;3.65;2.38;;;21.60;39.50;;;;;;5125982;27;20107;-65
2023/02/11 12:22:29;;;;;;;2.75;2.25;;;21.60;39.50;;;;;;5125463;27;20514;-62
2023/02/11 12:25:18;;;;;;;2.42;2.03;;;21.60;39.70;;;;;;5125663;27;20066;-59
2023/02/11 12:27:57;;;;;;;2.40;1.90;;;21.60;39.70;;;;;;5131591;27;20613;-64
2023/02/11 12:30:53;;;;;;;2.85;1.55;;;21.60;39.70;;;;;;5129467;27;20057;-69
2023/02/11 12:33:37;;;;;;;6.95;3.45;;;21.60;39.70;;;;;;5107705;27;20115;-69
2023/02/11 12:36:14;;;;;;;2.30;1.73;;;21.60;39.70;;;;;;5134410;27;20088;-67
2023/02/11 12:39:02;;;;;;;2.40;2.20;;;21.60;39.70;;;;;;5131724;27;20042;-65
2023/02/11 12:44:57;;;;;;;3.30;2.72;;;21.60;39.50;;;;;;5129124;27;20194;-64
2023/02/11 12:47:33;;;;;;;2.20;2.00;;;21.60;39.50;;;;;;5122486;27;20130;-66
2023/02/11 12:50:09;;;;;;;2.00;1.90;;;21.60;39.50;;;;;;5122879;27;20043;-61
2023/02/11 12:52:50;;;;;;;1.77;1.60;;;21.60;39.50;;;;;;5127434;27;20092;-57
2023/02/11 12:55:22;;;;;;;1.70;1.55;;;21.60;39.90;;;;;;5127615;27;20066;-57
2023/02/11 12:57:53;;;;;;;1.80;1.70;;;21.60;40.00;;;;;;5129721;27;20051;-55
2023/02/11 13:00:24;;;;;;;6.40;2.10;;;21.60;40.00;;;;;;5111813;27;20605;-53
2023/02/11 13:03:03;;;;;;;11.55;2.25;;;21.60;40.00;;;;;;5135770;27;20046;-54
2023/02/11 13:05:37;;;;;;;12.00;1.50;;;21.60;40.10;;;;;;5149547;27;20888;-55
2023/02/11 13:08:16;;;;;;;3.45;1.60;;;21.60;40.00;;;;;;5131640;27;20047;-53
2023/02/11 13:10:48;;;;;;;5.93;2.00;;;21.60;40.00;;;;;;5150355;27;20061;-54
2023/02/11 13:13:25;;;;;;;3.28;0.90;;;21.60;39.90;;;;;;5149925;27;20061;-54